createdAt,value
2019-04-05T09:06:15.188Z,33.0343
2019-04-05T09:06:23.378Z,33.2708
2019-04-05T09:06:36.329Z,32.5444
2019-04-05T09:06:44.304Z,32.3018
2019-04-05T09:06:52.305Z,32.1859
2019-04-05T09:10:28.811Z,33.3501
2019-04-05T09:10:36.377Z,31.5908
2019-04-05T09:10:44.333Z,31.7830
2019-04-05T09:10:54.652Z,31.5312
2019-04-05T09:11:02.337Z,31.3588
2019-04-05T09:11:10.343Z,31.3115
2019-04-05T09:11:18.296Z,31.5496
2019-04-05T09:11:26.319Z,31.6548
2019-04-05T09:11:34.310Z,31.6335
2019-04-05T09:11:42.353Z,31.6106
2019-04-05T09:11:50.300Z,31.5373
2019-04-05T09:11:58.311Z,31.5602
2019-04-05T09:12:06.332Z,31.4122
2019-04-05T09:12:14.329Z,31.3619
2019-04-05T09:12:22.312Z,31.1803
2019-04-05T09:12:30.321Z,31.1345
2019-04-05T09:12:38.326Z,31.0552
2019-04-05T09:12:46.374Z,31.0735
2019-04-05T09:12:54.298Z,31.0552
2019-04-05T09:13:02.339Z,30.8095
2019-04-05T09:13:10.309Z,30.7591
2019-04-05T09:13:18.335Z,30.5898
2019-04-05T09:13:26.308Z,30.4784
2019-04-05T09:13:34.340Z,30.7225
2019-04-05T09:13:42.312Z,30.7942
2019-04-05T09:13:51.424Z,30.7179
2019-04-05T09:13:59.311Z,31.5541
2019-04-05T09:14:07.318Z,31.0735
2019-04-05T09:14:15.318Z,30.8400
2019-04-05T09:14:23.290Z,30.6569
2019-04-05T09:14:31.320Z,30.6905
2019-04-05T09:14:39.293Z,30.7439
2019-04-05T09:14:47.291Z,30.5623
2019-04-05T09:14:55.294Z,31.0842
2019-04-05T09:15:03.368Z,30.6752
2019-04-05T09:15:11.307Z,30.3822
2019-04-05T09:15:19.303Z,30.2815
2019-04-05T09:15:27.325Z,30.1320
2019-04-05T09:15:35.333Z,29.7505
2019-04-05T09:15:43.316Z,29.3996
2019-04-05T09:15:51.293Z,29.1325
2019-04-05T09:15:59.302Z,28.9693
2019-04-05T09:16:07.328Z,28.7800
2019-04-05T09:16:15.325Z,28.6763
2019-04-05T09:16:23.354Z,28.5710
2019-04-05T09:16:31.337Z,28.5573
2019-04-05T09:16:39.312Z,28.5328
2019-04-05T09:16:47.322Z,28.6625
2019-04-05T09:16:55.596Z,28.8869
2019-04-05T09:17:03.602Z,28.9281
2019-04-05T09:17:11.603Z,29.0791
2019-04-05T09:17:19.611Z,29.2103
2019-04-05T09:17:27.603Z,29.3751
2019-04-05T09:17:35.614Z,29.4041
2019-04-05T09:17:43.607Z,29.4209
2019-04-05T09:17:51.602Z,29.7047
2019-04-05T09:17:59.610Z,29.4041
2019-04-05T09:18:07.610Z,29.2195
2019-04-05T09:18:15.614Z,29.1020
2019-04-05T09:18:23.585Z,28.7907
2019-04-05T09:18:31.587Z,28.7526
2019-04-05T09:18:39.604Z,28.7160
2019-04-05T12:57:16.471Z,33.2677
2019-04-05T12:57:25.717Z,33.2891
2019-04-05T12:57:35.275Z,32.1950
2019-04-05T12:57:43.259Z,31.8334
2019-04-05T12:57:51.253Z,30.8904
2019-04-05T12:57:59.270Z,31.6655
2019-04-05T12:58:09.813Z,32.0577
2019-04-05T12:58:18.263Z,32.1721
2019-04-05T12:58:26.751Z,32.2042
2019-04-05T12:58:34.256Z,32.3064
2019-04-05T12:58:42.250Z,32.3919
2019-04-05T12:58:50.247Z,32.4620
2019-04-05T12:58:58.246Z,32.4743
2019-04-05T12:59:06.245Z,32.5750
2019-04-05T12:59:14.248Z,32.6451
2019-04-05T12:59:25.134Z,32.7001
2019-04-05T12:59:33.264Z,32.8008
2019-04-05T12:59:41.885Z,32.7993
2019-04-05T12:59:51.289Z,32.8695
2019-04-05T12:59:59.307Z,32.8649
